sensor_id;sensor_type;location;lat;lon;timestamp;pressure;altitude;pressure_sealevel;temperature;humidity
61109;BME280;46995;55.740;37.402;2023-02-11T00:02:05;99448.84;;;-1.62;74.08
61109;BME280;46995;55.740;37.402;2023-02-11T00:04:31;99448.34;;;-1.72;73.83
61109;BME280;46995;55.740;37.402;2023-02-11T00:06:56;99445.56;;;-1.89;74.50
61109;BME280;46995;55.740;37.402;2023-02-11T00:09:22;99443.06;;;-1.92;74.69
61109;BME280;46995;55.740;37.402;2023-02-11T00:11:48;99442.53;;;-2.00;74.72
61109;BME280;46995;55.740;37.402;2023-02-11T00:14:14;99442.75;;;-2.06;75.20
61109;BME280;46995;55.740;37.402;2023-02-11T00:16:40;99449.03;;;-2.13;75.24
61109;BME280;46995;55.740;37.402;2023-02-11T00:19:06;99432.28;;;-2.26;75.35
61109;BME280;46995;55.740;37.402;2023-02-11T00:21:32;99436.88;;;-2.34;75.31
61109;BME280;46995;55.740;37.402;2023-02-11T00:23:59;99425.97;;;-2.42;75.86
61109;BME280;46995;55.740;37.402;2023-02-11T00:26:33;99446.28;;;-2.32;75.78
61109;BME280;46995;55.740;37.402;2023-02-11T00:29:00;99442.03;;;-2.34;75.76
61109;BME280;46995;55.740;37.402;2023-02-11T00:31:26;99433.78;;;-2.44;76.11
61109;BME280;46995;55.740;37.402;2023-02-11T00:33:52;99457.75;;;-2.40;76.17
61109;BME280;46995;55.740;37.402;2023-02-11T00:36:28;99447.66;;;-2.46;76.27
61109;BME280;46995;55.740;37.402;2023-02-11T00:38:55;99451.03;;;-2.44;75.96
61109;BME280;46995;55.740;37.402;2023-02-11T00:41:22;99462.25;;;-2.45;76.26
61109;BME280;46995;55.740;37.402;2023-02-11T00:43:48;99432.44;;;-2.56;75.59
61109;BME280;46995;55.740;37.402;2023-02-11T00:46:16;99451.34;;;-2.53;75.86
61109;BME280;46995;55.740;37.402;2023-02-11T00:48:42;99459.22;;;-2.57;75.93
61109;BME280;46995;55.740;37.402;2023-02-11T00:51:08;99454.19;;;-2.61;76.14
61109;BME280;46995;55.740;37.402;2023-02-11T00:53:35;99468.03;;;-2.62;76.10
61109;BME280;46995;55.740;37.402;2023-02-11T00:56:01;99465.56;;;-2.67;76.30
61109;BME280;46995;55.740;37.402;2023-02-11T00:58:29;99448.81;;;-2.80;76.71
61109;BME280;46995;55.740;37.402;2023-02-11T01:00:55;99443.50;;;-2.77;76.28
61109;BME280;46995;55.740;37.402;2023-02-11T01:03:23;99452.19;;;-2.78;76.67
61109;BME280;46995;55.740;37.402;2023-02-11T01:05:50;99449.72;;;-2.82;76.67
61109;BME280;46995;55.740;37.402;2023-02-11T01:08:15;99470.84;;;-2.70;76.72
61109;BME280;46995;55.740;37.402;2023-02-11T01:10:41;99469.06;;;-2.68;76.59
61109;BME280;46995;55.740;37.402;2023-02-11T01:13:08;99477.72;;;-2.69;76.70
61109;BME280;46995;55.740;37.402;2023-02-11T01:15:34;99477.81;;;-2.72;76.45
61109;BME280;46995;55.740;37.402;2023-02-11T01:18:00;99483.78;;;-2.70;76.65
61109;BME280;46995;55.740;37.402;2023-02-11T01:20:27;99485.50;;;-2.70;76.18
61109;BME280;46995;55.740;37.402;2023-02-11T01:22:55;99495.06;;;-2.72;76.67
61109;BME280;46995;55.740;37.402;2023-02-11T01:25:21;99479.81;;;-2.80;76.70
61109;BME280;46995;55.740;37.402;2023-02-11T01:27:47;99484.97;;;-2.80;76.00
61109;BME280;46995;55.740;37.402;2023-02-11T01:30:13;99480.13;;;-2.89;75.99
61109;BME280;46995;55.740;37.402;2023-02-11T01:32:39;99499.50;;;-2.77;76.59
61109;BME280;46995;55.740;37.402;2023-02-11T01:35:07;99503.75;;;-2.75;76.66
61109;BME280;46995;55.740;37.402;2023-02-11T01:37:34;99497.84;;;-2.78;76.05
61109;BME280;46995;55.740;37.402;2023-02-11T01:40:02;99492.06;;;-2.86;75.80
61109;BME280;46995;55.740;37.402;2023-02-11T01:42:29;99504.84;;;-2.82;76.52
61109;BME280;46995;55.740;37.402;2023-02-11T01:44:59;99485.22;;;-2.87;76.16
61109;BME280;46995;55.740;37.402;2023-02-11T01:47:26;99495.19;;;-2.77;76.48
61109;BME280;46995;55.740;37.402;2023-02-11T01:49:56;99475.47;;;-2.79;76.28
61109;BME280;46995;55.740;37.402;2023-02-11T01:52:28;99482.47;;;-2.57;75.53
61109;BME280;46995;55.740;37.402;2023-02-11T01:55:02;99492.19;;;-2.38;74.89
61109;BME280;46995;55.740;37.402;2023-02-11T01:57:51;99494.22;;;-2.23;74.50
61109;BME280;46995;55.740;37.402;2023-02-11T02:00:27;99470.78;;;-2.19;73.99
61109;BME280;46995;55.740;37.402;2023-02-11T02:03:05;99489.19;;;-2.03;73.46
61109;BME280;46995;55.740;37.402;2023-02-11T02:05:34;99481.16;;;-1.95;73.37
61109;BME280;46995;55.740;37.402;2023-02-11T02:10:54;99488.59;;;-1.86;72.75
61109;BME280;46995;55.740;37.402;2023-02-11T02:13:22;99485.88;;;-1.83;72.49
61109;BME280;46995;55.740;37.402;2023-02-11T02:15:54;99477.34;;;-1.85;72.39
61109;BME280;46995;55.740;37.402;2023-02-11T02:29:20;99492.34;;;-1.72;72.57
61109;BME280;46995;55.740;37.402;2023-02-11T02:34:43;99497.44;;;-1.68;72.50
61109;BME280;46995;55.740;37.402;2023-02-11T02:39:49;99479.75;;;-1.81;72.15
61109;BME280;46995;55.740;37.402;2023-02-11T02:42:15;99494.72;;;-1.65;72.26
61109;BME280;46995;55.740;37.402;2023-02-11T02:44:49;99505.97;;;-1.66;72.29
61109;BME280;46995;55.740;37.402;2023-02-11T02:47:16;99493.50;;;-1.79;71.87
61109;BME280;46995;55.740;37.402;2023-02-11T02:49:42;99479.22;;;-1.89;71.77
61109;BME280;46995;55.740;37.402;2023-02-11T02:58:20;99476.22;;;-2.01;72.49
61109;BME280;46995;55.740;37.402;2023-02-11T03:03:27;99491.47;;;-1.94;72.57
61109;BME280;46995;55.740;37.402;2023-02-11T03:06:08;99491.56;;;-1.97;72.43
61109;BME280;46995;55.740;37.402;2023-02-11T03:08:45;99490.75;;;-1.99;72.10
61109;BME280;46995;55.740;37.402;2023-02-11T03:11:16;99490.38;;;-2.11;71.98
61109;BME280;46995;55.740;37.402;2023-02-11T03:13:44;99486.06;;;-2.11;72.46
61109;BME280;46995;55.740;37.402;2023-02-11T03:16:14;99485.41;;;-2.18;72.98
61109;BME280;46995;55.740;37.402;2023-02-11T03:18:48;99467.59;;;-2.25;72.53
61109;BME280;46995;55.740;37.402;2023-02-11T03:21:15;99487.75;;;-2.10;72.52
61109;BME280;46995;55.740;37.402;2023-02-11T03:23:52;99490.41;;;-2.13;72.18
61109;BME280;46995;55.740;37.402;2023-02-11T03:26:27;99491.66;;;-2.23;72.59
61109;BME280;46995;55.740;37.402;2023-02-11T03:32:02;99487.13;;;-2.41;72.63
61109;BME280;46995;55.740;37.402;2023-02-11T03:34:58;99477.06;;;-2.50;73.06
61109;BME280;46995;55.740;37.402;2023-02-11T03:40:12;99476.34;;;-2.54;72.93
61109;BME280;46995;55.740;37.402;2023-02-11T03:42:43;99465.47;;;-2.64;72.63
61109;BME280;46995;55.740;37.402;2023-02-11T03:45:13;99474.66;;;-2.55;73.15
61109;BME280;46995;55.740;37.402;2023-02-11T03:47:44;99471.38;;;-2.60;73.00
61109;BME280;46995;55.740;37.402;2023-02-11T03:50:11;99471.59;;;-2.66;73.41
61109;BME280;46995;55.740;37.402;2023-02-11T03:52:39;99471.81;;;-2.72;73.28
61109;BME280;46995;55.740;37.402;2023-02-11T03:55:08;99475.38;;;-2.76;73.63
61109;BME280;46995;55.740;37.402;2023-02-11T03:57:38;99466.31;;;-2.88;73.80
61109;BME280;46995;55.740;37.402;2023-02-11T04:00:06;99475.03;;;-2.92;73.53
61109;BME280;46995;55.740;37.402;2023-02-11T04:02:37;99469.97;;;-2.95;73.58
61109;BME280;46995;55.740;37.402;2023-02-11T04:05:05;99482.09;;;-2.97;73.77
61109;BME280;46995;55.740;37.402;2023-02-11T04:07:32;99477.19;;;-3.05;73.86
61109;BME280;46995;55.740;37.402;2023-02-11T04:09:58;99470.41;;;-3.09;74.34
61109;BME280;46995;55.740;37.402;2023-02-11T04:12:23;99459.44;;;-3.15;73.81
61109;BME280;46995;55.740;37.402;2023-02-11T04:14:49;99445.13;;;-3.25;74.16
61109;BME280;46995;55.740;37.402;2023-02-11T04:17:15;99460.63;;;-3.25;74.25
61109;BME280;46995;55.740;37.402;2023-02-11T04:19:41;99453.84;;;-3.29;74.10
61109;BME280;46995;55.740;37.402;2023-02-11T04:22:07;99475.16;;;-3.23;74.50
61109;BME280;46995;55.740;37.402;2023-02-11T04:24:33;99457.25;;;-3.27;74.53
61109;BME280;46995;55.740;37.402;2023-02-11T04:26:59;99465.78;;;-3.25;74.45
61109;BME280;46995;55.740;37.402;2023-02-11T04:29:25;99455.66;;;-3.31;74.22
61109;BME280;46995;55.740;37.402;2023-02-11T04:31:53;99452.38;;;-3.36;74.35
61109;BME280;46995;55.740;37.402;2023-02-11T04:34:19;99455.84;;;-3.37;74.31
61109;BME280;46995;55.740;37.402;2023-02-11T04:36:45;99455.94;;;-3.40;74.76
61109;BME280;46995;55.740;37.402;2023-02-11T04:39:11;99454.28;;;-3.43;75.04
61109;BME280;46995;55.740;37.402;2023-02-11T04:41:37;99464.66;;;-3.45;75.15
61109;BME280;46995;55.740;37.402;2023-02-11T04:44:04;99452.88;;;-3.53;75.07
61109;BME280;46995;55.740;37.402;2023-02-11T04:46:30;99450.97;;;-3.47;74.66
61109;BME280;46995;55.740;37.402;2023-02-11T04:48:56;99471.44;;;-3.40;75.00
61109;BME280;46995;55.740;37.402;2023-02-11T04:51:22;99462.69;;;-3.36;74.72
61109;BME280;46995;55.740;37.402;2023-02-11T04:53:47;99452.66;;;-3.46;74.49
61109;BME280;46995;55.740;37.402;2023-02-11T04:56:13;99429.06;;;-3.61;74.29
61109;BME280;46995;55.740;37.402;2023-02-11T04:58:40;99460.44;;;-3.47;74.83
61109;BME280;46995;55.740;37.402;2023-02-11T05:01:10;99469.81;;;-3.45;75.10
61109;BME280;46995;55.740;37.402;2023-02-11T05:03:36;99452.84;;;-3.52;75.36
61109;BME280;46995;55.740;37.402;2023-02-11T05:06:03;99468.03;;;-3.43;75.04
61109;BME280;46995;55.740;37.402;2023-02-11T05:08:29;99459.41;;;-3.42;74.84
61109;BME280;46995;55.740;37.402;2023-02-11T05:10:55;99462.50;;;-3.30;75.11
61109;BME280;46995;55.740;37.402;2023-02-11T05:13:21;99463.16;;;-3.24;74.30
61109;BME280;46995;55.740;37.402;2023-02-11T05:15:47;99451.88;;;-3.21;74.60
61109;BME280;46995;55.740;37.402;2023-02-11T05:18:12;99460.03;;;-3.07;74.38
61109;BME280;46995;55.740;37.402;2023-02-11T05:20:42;99447.81;;;-3.02;73.99
61109;BME280;46995;55.740;37.402;2023-02-11T05:23:14;99446.53;;;-2.89;73.63
61109;BME280;46995;55.740;37.402;2023-02-11T05:25:40;99430.22;;;-2.91;73.63
61109;BME280;46995;55.740;37.402;2023-02-11T05:28:06;99444.13;;;-2.69;72.56
61109;BME280;46995;55.740;37.402;2023-02-11T05:30:31;99448.16;;;-2.62;72.90
61109;BME280;46995;55.740;37.402;2023-02-11T05:32:57;99437.94;;;-2.65;72.53
61109;BME280;46995;55.740;37.402;2023-02-11T05:35:24;99447.88;;;-2.52;72.87
61109;BME280;46995;55.740;37.402;2023-02-11T05:37:50;99453.72;;;-2.47;72.84
61109;BME280;46995;55.740;37.402;2023-02-11T05:40:16;99448.22;;;-2.38;72.31
61109;BME280;46995;55.740;37.402;2023-02-11T05:42:42;99404.81;;;-2.53;72.03
61109;BME280;46995;55.740;37.402;2023-02-11T05:45:08;99433.22;;;-2.29;72.31
61109;BME280;46995;55.740;37.402;2023-02-11T05:47:34;99449.03;;;-2.13;71.76
61109;BME280;46995;55.740;37.402;2023-02-11T05:50:00;99445.34;;;-2.06;71.46
61109;BME280;46995;55.740;37.402;2023-02-11T05:52:26;99418.16;;;-2.18;71.38
61109;BME280;46995;55.740;37.402;2023-02-11T05:54:51;99451.97;;;-1.99;71.57
61109;BME280;46995;55.740;37.402;2023-02-11T05:57:18;99420.59;;;-2.13;71.66
61109;BME280;46995;55.740;37.402;2023-02-11T05:59:43;99432.50;;;-2.09;71.47
61109;BME280;46995;55.740;37.402;2023-02-11T06:02:13;99434.66;;;-1.97;71.38
61109;BME280;46995;55.740;37.402;2023-02-11T06:04:45;99414.06;;;-2.00;71.39
61109;BME280;46995;55.740;37.402;2023-02-11T06:07:10;99423.41;;;-1.96;70.96
61109;BME280;46995;55.740;37.402;2023-02-11T06:09:39;99442.81;;;-1.84;70.61
61109;BME280;46995;55.740;37.402;2023-02-11T06:12:05;99429.47;;;-1.97;70.50
61109;BME280;46995;55.740;37.402;2023-02-11T06:14:35;99403.06;;;-2.05;70.95
61109;BME280;46995;55.740;37.402;2023-02-11T06:17:01;99437.63;;;-1.84;70.71
61109;BME280;46995;55.740;37.402;2023-02-11T06:19:27;99452.84;;;-1.77;70.84
61109;BME280;46995;55.740;37.402;2023-02-11T06:21:54;99451.97;;;-1.76;71.05
61109;BME280;46995;55.740;37.402;2023-02-11T06:24:20;99441.84;;;-1.82;71.05
61109;BME280;46995;55.740;37.402;2023-02-11T06:26:49;99436.56;;;-1.79;71.27
61109;BME280;46995;55.740;37.402;2023-02-11T06:29:15;99439.69;;;-1.71;71.35
61109;BME280;46995;55.740;37.402;2023-02-11T06:31:40;99426.78;;;-1.72;70.67
61109;BME280;46995;55.740;37.402;2023-02-11T06:34:08;99440.25;;;-1.62;71.03
61109;BME280;46995;55.740;37.402;2023-02-11T06:36:37;99425.63;;;-1.63;70.60
61109;BME280;46995;55.740;37.402;2023-02-11T06:39:03;99426.06;;;-1.76;71.04
61109;BME280;46995;55.740;37.402;2023-02-11T06:41:30;99444.69;;;-1.66;71.02
61109;BME280;46995;55.740;37.402;2023-02-11T06:43:55;99423.22;;;-1.68;70.70
61109;BME280;46995;55.740;37.402;2023-02-11T06:46:21;99425.72;;;-1.66;70.74
61109;BME280;46995;55.740;37.402;2023-02-11T06:48:47;99400.88;;;-1.71;70.91
61109;BME280;46995;55.740;37.402;2023-02-11T06:51:14;99436.22;;;-1.48;70.29
61109;BME280;46995;55.740;37.402;2023-02-11T06:53:44;99436.16;;;-1.46;70.78
61109;BME280;46995;55.740;37.402;2023-02-11T06:56:22;99437.84;;;-1.45;70.57
61109;BME280;46995;55.740;37.402;2023-02-11T06:58:54;99447.44;;;-1.47;69.98
61109;BME280;46995;55.740;37.402;2023-02-11T07:01:22;99441.41;;;-1.48;70.32
61109;BME280;46995;55.740;37.402;2023-02-11T07:03:48;99445.06;;;-1.53;70.46
61109;BME280;46995;55.740;37.402;2023-02-11T07:06:19;99431.03;;;-1.69;70.80
61109;BME280;46995;55.740;37.402;2023-02-11T07:08:46;99431.97;;;-1.72;70.93
61109;BME280;46995;55.740;37.402;2023-02-11T07:11:19;99446.19;;;-1.60;71.22
61109;BME280;46995;55.740;37.402;2023-02-11T07:13:46;99410.78;;;-1.82;70.98
61109;BME280;46995;55.740;37.402;2023-02-11T07:16:14;99432.22;;;-1.56;71.08
61109;BME280;46995;55.740;37.402;2023-02-11T07:18:40;99437.91;;;-1.47;70.32
61109;BME280;46995;55.740;37.402;2023-02-11T07:21:08;99423.94;;;-1.43;70.95
61109;BME280;46995;55.740;37.402;2023-02-11T07:23:35;99414.91;;;-1.54;70.34
61109;BME280;46995;55.740;37.402;2023-02-11T07:26:12;99356.66;;;-1.88;70.44
61109;BME280;46995;55.740;37.402;2023-02-11T07:28:41;99434.22;;;-1.41;70.76
61109;BME280;46995;55.740;37.402;2023-02-11T07:31:09;99435.72;;;-1.36;70.03
61109;BME280;46995;55.740;37.402;2023-02-11T07:33:36;99415.28;;;-1.42;69.79
61109;BME280;46995;55.740;37.402;2023-02-11T07:36:05;99439.06;;;-1.32;69.82
61109;BME280;46995;55.740;37.402;2023-02-11T07:38:32;99424.56;;;-1.36;69.67
61109;BME280;46995;55.740;37.402;2023-02-11T07:41:00;99400.63;;;-1.43;69.91
61109;BME280;46995;55.740;37.402;2023-02-11T07:43:27;99413.91;;;-1.30;69.68
61109;BME280;46995;55.740;37.402;2023-02-11T07:45:57;99415.50;;;-1.26;69.48
61109;BME280;46995;55.740;37.402;2023-02-11T07:48:22;99431.09;;;-1.06;69.85
61109;BME280;46995;55.740;37.402;2023-02-11T07:50:48;99413.59;;;-1.21;68.55
61109;BME280;46995;55.740;37.402;2023-02-11T07:53:14;99406.72;;;-1.22;68.83
61109;BME280;46995;55.740;37.402;2023-02-11T07:55:43;99406.47;;;-1.16;68.73
61109;BME280;46995;55.740;37.402;2023-02-11T07:58:09;99413.84;;;-1.07;68.93
61109;BME280;46995;55.740;37.402;2023-02-11T08:00:36;99417.66;;;-1.15;69.03
61109;BME280;46995;55.740;37.402;2023-02-11T08:03:01;99393.63;;;-1.19;68.97
61109;BME280;46995;55.740;37.402;2023-02-11T08:05:31;99410.13;;;-1.00;68.42
61109;BME280;46995;55.740;37.402;2023-02-11T08:08:03;99402.06;;;-0.94;67.81
61109;BME280;46995;55.740;37.402;2023-02-11T08:10:29;99411.06;;;-1.02;67.67
61109;BME280;46995;55.740;37.402;2023-02-11T08:12:55;99411.13;;;-1.04;67.98
61109;BME280;46995;55.740;37.402;2023-02-11T08:15:20;99385.53;;;-1.11;68.31
61109;BME280;46995;55.740;37.402;2023-02-11T08:17:46;99406.47;;;-0.96;68.26
61109;BME280;46995;55.740;37.402;2023-02-11T08:20:12;99390.03;;;-0.95;67.97
61109;BME280;46995;55.740;37.402;2023-02-11T08:22:38;99338.97;;;-1.13;68.02
61109;BME280;46995;55.740;37.402;2023-02-11T08:25:04;99383.00;;;-0.72;67.67
61109;BME280;46995;55.740;37.402;2023-02-11T08:27:30;99363.06;;;-0.70;67.11
61109;BME280;46995;55.740;37.402;2023-02-11T08:29:55;99383.28;;;-0.58;66.85
61109;BME280;46995;55.740;37.402;2023-02-11T08:32:23;99385.88;;;-0.58;66.80
61109;BME280;46995;55.740;37.402;2023-02-11T08:34:50;99364.59;;;-0.66;66.97
61109;BME280;46995;55.740;37.402;2023-02-11T08:37:18;99355.28;;;-0.70;66.92
61109;BME280;46995;55.740;37.402;2023-02-11T08:39:44;99359.16;;;-0.60;66.98
61109;BME280;46995;55.740;37.402;2023-02-11T08:42:12;99350.69;;;-0.64;66.79
61109;BME280;46995;55.740;37.402;2023-02-11T08:44:43;99343.56;;;-0.79;67.53
61109;BME280;46995;55.740;37.402;2023-02-11T08:47:10;99354.66;;;-0.75;67.22
61109;BME280;46995;55.740;37.402;2023-02-11T08:49:36;99352.53;;;-0.67;67.12
61109;BME280;46995;55.740;37.402;2023-02-11T08:52:02;99345.06;;;-0.73;67.30
61109;BME280;46995;55.740;37.402;2023-02-11T08:54:31;99343.88;;;-0.66;67.46
61109;BME280;46995;55.740;37.402;2023-02-11T08:56:57;99308.75;;;-0.73;67.75
61109;BME280;46995;55.740;37.402;2023-02-11T08:59:23;99305.44;;;-0.77;67.48
61109;BME280;46995;55.740;37.402;2023-02-11T09:01:49;99305.66;;;-0.81;67.81
61109;BME280;46995;55.740;37.402;2023-02-11T09:04:15;99310.97;;;-0.84;67.92
61109;BME280;46995;55.740;37.402;2023-02-11T09:06:41;99309.09;;;-0.81;68.11
61109;BME280;46995;55.740;37.402;2023-02-11T09:09:11;99297.47;;;-0.72;68.14
61109;BME280;46995;55.740;37.402;2023-02-11T09:11:38;99288.44;;;-0.64;67.64
61109;BME280;46995;55.740;37.402;2023-02-11T09:14:23;99280.41;;;-0.58;67.57
61109;BME280;46995;55.740;37.402;2023-02-11T09:16:49;99263.69;;;-0.52;66.97
61109;BME280;46995;55.740;37.402;2023-02-11T09:19:16;99282.22;;;-0.41;67.12
61109;BME280;46995;55.740;37.402;2023-02-11T09:21:43;99257.81;;;-0.56;67.21
61109;BME280;46995;55.740;37.402;2023-02-11T09:24:08;99251.78;;;-0.56;67.48
61109;BME280;46995;55.740;37.402;2023-02-11T09:26:36;99231.31;;;-0.62;67.72
61109;BME280;46995;55.740;37.402;2023-02-11T09:29:03;99252.41;;;-0.51;67.66
61109;BME280;46995;55.740;37.402;2023-02-11T09:31:31;99227.81;;;-0.61;67.93
61109;BME280;46995;55.740;37.402;2023-02-11T09:34:00;99221.88;;;-0.63;67.96
61109;BME280;46995;55.740;37.402;2023-02-11T09:36:29;99246.31;;;-0.50;67.75
61109;BME280;46995;55.740;37.402;2023-02-11T09:38:57;99221.50;;;-0.56;67.52
61109;BME280;46995;55.740;37.402;2023-02-11T09:44:43;99246.75;;;-0.59;67.99
61109;BME280;46995;55.740;37.402;2023-02-11T09:47:26;99229.09;;;-0.70;68.16
61109;BME280;46995;55.740;37.402;2023-02-11T09:50:01;99231.00;;;-0.73;68.21
61109;BME280;46995;55.740;37.402;2023-02-11T09:55:00;99203.13;;;-0.89;68.23
61109;BME280;46995;55.740;37.402;2023-02-11T09:57:34;99203.13;;;-0.89;68.93
61109;BME280;46995;55.740;37.402;2023-02-11T10:00:21;99209.09;;;-0.87;69.40
61109;BME280;46995;55.740;37.402;2023-02-11T10:03:19;99205.47;;;-0.82;69.67
61109;BME280;46995;55.740;37.402;2023-02-11T10:11:22;99189.13;;;-1.03;69.83
61109;BME280;46995;55.740;37.402;2023-02-11T10:16:44;99192.91;;;-0.92;69.77
61109;BME280;46995;55.740;37.402;2023-02-11T10:19:28;99186.56;;;-0.84;69.93
61109;BME280;46995;55.740;37.402;2023-02-11T10:22:17;99184.44;;;-0.76;69.44
61109;BME280;46995;55.740;37.402;2023-02-11T10:24:54;99178.19;;;-0.72;69.45
61109;BME280;46995;55.740;37.402;2023-02-11T10:27:32;99149.00;;;-0.76;69.46
61109;BME280;46995;55.740;37.402;2023-02-11T10:30:06;99140.09;;;-0.70;69.46
61109;BME280;46995;55.740;37.402;2023-02-11T10:32:43;99137.78;;;-0.58;69.09
61109;BME280;46995;55.740;37.402;2023-02-11T10:35:17;99143.50;;;-0.51;68.67
61109;BME280;46995;55.740;37.402;2023-02-11T10:37:44;99120.66;;;-0.62;69.24
61109;BME280;46995;55.740;37.402;2023-02-11T10:40:16;99118.63;;;-0.55;69.00
61109;BME280;46995;55.740;37.402;2023-02-11T10:42:47;99101.03;;;-0.49;68.57
61109;BME280;46995;55.740;37.402;2023-02-11T10:45:38;99105.31;;;-0.48;68.66
61109;BME280;46995;55.740;37.402;2023-02-11T10:48:05;99113.59;;;-0.41;68.52
61109;BME280;46995;55.740;37.402;2023-02-11T10:50:33;99085.53;;;-0.50;68.28
61109;BME280;46995;55.740;37.402;2023-02-11T10:53:17;99098.66;;;-0.36;68.33
61109;BME280;46995;55.740;37.402;2023-02-11T10:55:53;99095.84;;;-0.31;68.36
61109;BME280;46995;55.740;37.402;2023-02-11T10:58:45;99095.72;;;-0.28;67.91
61109;BME280;46995;55.740;37.402;2023-02-11T11:01:10;99082.13;;;-0.33;67.94
61109;BME280;46995;55.740;37.402;2023-02-11T11:03:39;99071.25;;;-0.42;67.20
61109;BME280;46995;55.740;37.402;2023-02-11T11:06:10;99088.44;;;-0.39;68.05
61109;BME280;46995;55.740;37.402;2023-02-11T11:08:44;99073.13;;;-0.44;68.21
61109;BME280;46995;55.740;37.402;2023-02-11T11:11:16;99058.84;;;-0.35;67.58
61109;BME280;46995;55.740;37.402;2023-02-11T11:14:02;99068.31;;;-0.17;67.45
61109;BME280;46995;55.740;37.402;2023-02-11T11:16:35;99058.06;;;-0.20;67.52
61109;BME280;46995;55.740;37.402;2023-02-11T11:21:50;99053.19;;;-0.26;67.28
61109;BME280;46995;55.740;37.402;2023-02-11T11:24:22;99030.25;;;-0.33;67.43
61109;BME280;46995;55.740;37.402;2023-02-11T11:26:54;99024.69;;;-0.43;67.37
61109;BME280;46995;55.740;37.402;2023-02-11T11:29:46;99024.38;;;-0.37;67.35
61109;BME280;46995;55.740;37.402;2023-02-11T11:32:18;99028.97;;;-0.42;67.14
61109;BME280;46995;55.740;37.402;2023-02-11T11:34:50;99026.19;;;-0.39;67.26
61109;BME280;46995;55.740;37.402;2023-02-11T11:37:28;99003.03;;;-0.42;67.29
61109;BME280;46995;55.740;37.402;2023-02-11T11:39:59;99002.06;;;-0.41;66.83
61109;BME280;46995;55.740;37.402;2023-02-11T11:42:32;99001.63;;;-0.32;66.60
61109;BME280;46995;55.740;37.402;2023-02-11T11:50:53;98994.16;;;-0.38;66.40
61109;BME280;46995;55.740;37.402;2023-02-11T11:53:36;98986.81;;;-0.47;66.17
61109;BME280;46995;55.740;37.402;2023-02-11T11:56:25;98990.13;;;-0.44;66.37
61109;BME280;46995;55.740;37.402;2023-02-11T11:58:51;98988.38;;;-0.43;66.28
61109;BME280;46995;55.740;37.402;2023-02-11T12:16:14;98953.81;;;-0.44;65.84
61109;BME280;46995;55.740;37.402;2023-02-11T12:29:59;98934.13;;;-0.48;66.36
61109;BME280;46995;55.740;37.402;2023-02-11T12:35:14;98929.75;;;-0.47;66.45
61109;BME280;46995;55.740;37.402;2023-02-11T12:37:55;98928.41;;;-0.54;66.13
61109;BME280;46995;55.740;37.402;2023-02-11T12:43:27;98904.56;;;-0.78;67.13
61109;BME280;46995;55.740;37.402;2023-02-11T12:56:37;98871.72;;;-0.95;68.00
61109;BME280;46995;55.740;37.402;2023-02-11T12:59:32;98859.69;;;-0.96;68.10
61109;BME280;46995;55.740;37.402;2023-02-11T13:02:11;98838.34;;;-1.01;67.80
61109;BME280;46995;55.740;37.402;2023-02-11T13:04:45;98825.41;;;-1.01;68.01
61109;BME280;46995;55.740;37.402;2023-02-11T13:07:33;98836.38;;;-0.96;68.45
61109;BME280;46995;55.740;37.402;2023-02-11T13:12:58;98814.56;;;-1.09;68.51
61109;BME280;46995;55.740;37.402;2023-02-11T13:15:54;98814.03;;;-0.98;68.84
61109;BME280;46995;55.740;37.402;2023-02-11T13:18:33;98807.84;;;-0.96;69.25
61109;BME280;46995;55.740;37.402;2023-02-11T13:21:21;98799.47;;;-1.01;70.29
61109;BME280;46995;55.740;37.402;2023-02-11T13:24:08;98789.13;;;-1.01;70.50
61109;BME280;46995;55.740;37.402;2023-02-11T13:32:11;98770.47;;;-1.24;74.68
61109;BME280;46995;55.740;37.402;2023-02-11T13:37:33;98751.53;;;-1.42;77.41
61109;BME280;46995;55.740;37.402;2023-02-11T13:40:35;98762.25;;;-1.33;78.76
61109;BME280;46995;55.740;37.402;2023-02-11T13:43:04;98744.50;;;-1.40;77.93
61109;BME280;46995;55.740;37.402;2023-02-11T13:45:45;98723.94;;;-1.43;78.42
61109;BME280;46995;55.740;37.402;2023-02-11T13:48:33;98733.69;;;-1.31;78.67
61109;BME280;46995;55.740;37.402;2023-02-11T13:51:13;98729.50;;;-1.34;78.71
61109;BME280;46995;55.740;37.402;2023-02-11T13:53:58;98710.69;;;-1.37;78.72
61109;BME280;46995;55.740;37.402;2023-02-11T13:56:34;98705.41;;;-1.36;78.58
61109;BME280;46995;55.740;37.402;2023-02-11T13:59:04;98713.13;;;-1.34;78.63
61109;BME280;46995;55.740;37.402;2023-02-11T14:10:55;98640.53;;;-1.65;80.99
61109;BME280;46995;55.740;37.402;2023-02-11T14:13:32;98649.91;;;-1.63;81.56
61109;BME280;46995;55.740;37.402;2023-02-11T14:23:53;98598.22;;;-1.82;82.48
61109;BME280;46995;55.740;37.402;2023-02-11T14:26:48;98614.22;;;-1.74;83.35
61109;BME280;46995;55.740;37.402;2023-02-11T14:29:29;98606.75;;;-1.80;83.19
61109;BME280;46995;55.740;37.402;2023-02-11T14:34:58;98590.53;;;-1.83;82.75
61109;BME280;46995;55.740;37.402;2023-02-11T14:37:54;98598.50;;;-1.71;82.14
61109;BME280;46995;55.740;37.402;2023-02-11T14:43:23;98575.88;;;-1.67;82.91
61109;BME280;46995;55.740;37.402;2023-02-11T14:45:53;98554.00;;;-1.77;83.45
61109;BME280;46995;55.740;37.402;2023-02-11T14:48:24;98542.22;;;-1.83;82.80
61109;BME280;46995;55.740;37.402;2023-02-11T14:50:56;98525.94;;;-1.85;83.39
61109;BME280;46995;55.740;37.402;2023-02-11T14:53:25;98543.75;;;-1.79;84.37
61109;BME280;46995;55.740;37.402;2023-02-11T14:55:54;98553.53;;;-1.68;84.66
61109;BME280;46995;55.740;37.402;2023-02-11T14:58:32;98543.25;;;-1.69;85.66
61109;BME280;46995;55.740;37.402;2023-02-11T15:01:04;98537.31;;;-1.72;86.00
61109;BME280;46995;55.740;37.402;2023-02-11T15:03:41;98540.06;;;-1.75;85.98
61109;BME280;46995;55.740;37.402;2023-02-11T15:06:16;98500.22;;;-1.88;86.20
61109;BME280;46995;55.740;37.402;2023-02-11T15:09:02;98515.75;;;-1.88;86.80
61109;BME280;46995;55.740;37.402;2023-02-11T15:11:32;98528.97;;;-1.77;86.89
61109;BME280;46995;55.740;37.402;2023-02-11T15:14:07;98486.88;;;-1.96;87.52
61109;BME280;46995;55.740;37.402;2023-02-11T15:16:33;98500.22;;;-1.88;87.36
61109;BME280;46995;55.740;37.402;2023-02-11T15:19:03;98480.78;;;-1.95;87.67
61109;BME280;46995;55.740;37.402;2023-02-11T15:21:33;98504.75;;;-1.76;87.79